createdAt,value
2019-01-17T00:01:31.480Z,90.00
2019-01-17T00:04:23.504Z,90.00
2019-01-17T00:07:12.555Z,90.00
2019-01-17T00:09:53.313Z,90.00
2019-01-17T00:12:31.018Z,90.00
2019-01-17T00:15:19.248Z,90.10
2019-01-17T00:18:07.078Z,90.00
2019-01-17T00:21:11.275Z,90.10
2019-01-17T00:24:02.784Z,90.10
2019-01-17T00:26:57.367Z,90.30
2019-01-17T00:29:36.700Z,90.20
2019-01-17T00:32:29.229Z,90.30
2019-01-17T00:35:24.430Z,90.00
2019-01-17T00:38:03.975Z,90.40
2019-01-17T00:40:49.133Z,90.30
2019-01-17T00:43:37.262Z,90.40
2019-01-17T00:46:25.497Z,90.70
2019-01-17T00:49:06.258Z,90.80
2019-01-17T00:51:58.494Z,91.00
2019-01-17T00:54:59.721Z,91.00
2019-01-17T00:57:51.746Z,91.00
2019-01-17T01:00:49.904Z,91.10
2019-01-17T01:03:37.731Z,91.30
2019-01-17T01:06:25.869Z,91.30
2019-01-17T01:09:17.779Z,91.00
2019-01-17T01:12:06.707Z,91.10
2019-01-17T01:14:55.988Z,90.90
2019-01-17T01:17:48.111Z,90.90
2019-01-17T01:20:55.582Z,90.90
2019-01-17T01:23:43.826Z,90.80
2019-01-17T01:26:27.664Z,90.90
2019-01-17T01:29:15.589Z,90.60
2019-01-17T01:31:53.081Z,90.60
2019-01-17T01:34:57.484Z,90.30
2019-01-17T01:37:45.516Z,90.30
2019-01-17T01:40:27.011Z,90.50
2019-01-17T01:43:08.684Z,90.40
2019-01-17T01:46:00.401Z,90.50
2019-01-17T01:48:52.620Z,90.40
2019-01-17T01:51:47.925Z,89.40
2019-01-17T01:54:22.026Z,89.50
2019-01-17T01:56:50.796Z,90.00
2019-01-17T01:59:21.016Z,88.10
2019-01-17T02:01:51.702Z,88.00
2019-01-17T02:04:21.951Z,89.80
2019-01-17T02:06:52.491Z,90.00
2019-01-17T02:09:22.750Z,90.10
2019-01-17T02:11:53.216Z,90.20
2019-01-17T02:14:23.522Z,90.30
2019-01-17T02:16:53.990Z,90.10
2019-01-17T02:19:24.374Z,90.10
2019-01-17T02:21:54.602Z,90.30
2019-01-17T02:24:28.492Z,90.50
2019-01-17T02:26:57.108Z,90.30
2019-01-17T02:29:27.278Z,90.30
2019-01-17T02:31:58.024Z,90.10
2019-01-17T02:34:28.550Z,90.20
2019-01-17T02:36:59.100Z,90.20
2019-01-17T02:39:29.606Z,89.70
2019-01-17T02:41:59.789Z,90.00
2019-01-17T02:44:30.376Z,90.10
2019-01-17T02:47:00.622Z,90.30
2019-01-17T02:49:30.802Z,90.30
2019-01-17T02:52:01.396Z,90.30
2019-01-17T02:54:35.687Z,90.10
2019-01-17T02:57:04.070Z,90.30
2019-01-17T02:59:34.678Z,90.20
2019-01-17T03:02:04.936Z,90.20
2019-01-17T03:04:35.534Z,90.20
2019-01-17T03:07:05.775Z,90.40
2019-01-17T03:09:36.380Z,90.50
2019-01-17T03:12:07.089Z,90.70
2019-01-17T03:14:37.664Z,90.80
2019-01-17T03:17:08.118Z,90.80
2019-01-17T03:19:38.376Z,90.90
2019-01-17T03:22:08.880Z,90.80
2019-01-17T03:24:43.116Z,90.90
2019-01-17T03:27:11.331Z,90.80
2019-01-17T03:29:41.891Z,91.10
2019-01-17T03:32:12.025Z,90.80
2019-01-17T03:34:42.592Z,91.40
2019-01-17T03:37:12.816Z,91.10
2019-01-17T03:39:43.324Z,91.10
2019-01-17T03:42:13.832Z,91.10
2019-01-17T03:44:44.102Z,91.00
2019-01-17T03:47:14.285Z,91.00
2019-01-17T03:49:44.946Z,91.10
2019-01-17T03:52:15.622Z,91.10
2019-01-17T03:54:50.522Z,91.30
2019-01-17T03:57:18.397Z,91.10
2019-01-17T03:59:48.314Z,91.10
2019-01-17T04:02:18.929Z,91.10
2019-01-17T04:04:49.529Z,91.30
2019-01-17T04:07:19.866Z,91.10
2019-01-17T04:09:50.586Z,91.10
2019-01-17T04:12:21.240Z,91.10
2019-01-17T04:14:51.783Z,91.10
2019-01-17T04:17:21.736Z,91.10
2019-01-17T04:19:52.337Z,91.20
2019-01-17T04:22:22.549Z,91.10
2019-01-17T04:24:57.369Z,91.40
2019-01-17T04:27:24.780Z,91.20
2019-01-17T04:29:54.975Z,91.50
2019-01-17T04:32:25.494Z,91.50
2019-01-17T04:34:56.019Z,91.60
2019-01-17T04:37:26.482Z,91.50
2019-01-17T04:39:56.986Z,91.50
2019-01-17T04:42:27.546Z,91.10
2019-01-17T04:44:57.777Z,91.50
2019-01-17T04:47:28.396Z,91.70
2019-01-17T04:49:59.055Z,91.80
2019-01-17T04:52:29.633Z,91.80
2019-01-17T04:55:05.013Z,91.80
2019-01-17T04:57:32.554Z,91.80
2019-01-17T05:00:03.122Z,92.20
2019-01-17T05:02:33.586Z,92.00
2019-01-17T05:05:03.775Z,92.00
2019-01-17T05:07:34.381Z,92.10
2019-01-17T05:10:05.318Z,92.10
2019-01-17T05:12:35.848Z,92.20
2019-01-17T05:15:06.826Z,92.30
2019-01-17T05:17:37.344Z,92.70
2019-01-17T05:20:09.320Z,92.20
2019-01-17T05:22:39.250Z,92.00
2019-01-17T05:25:12.734Z,91.90
2019-01-17T05:27:41.931Z,92.00
2019-01-17T05:30:17.369Z,92.10
2019-01-17T05:32:48.206Z,92.20
2019-01-17T05:35:18.537Z,92.20
2019-01-17T05:37:48.760Z,92.30
2019-01-17T05:40:20.367Z,92.40
2019-01-17T05:42:50.856Z,92.50
2019-01-17T05:45:21.328Z,92.60
2019-01-17T05:47:51.820Z,92.80
2019-01-17T05:50:22.344Z,92.70
2019-01-17T05:52:52.540Z,92.70
2019-01-17T05:55:22.409Z,92.60
2019-01-17T05:57:52.321Z,92.60
2019-01-17T06:00:23.114Z,92.70
2019-01-17T06:02:53.640Z,92.70
2019-01-17T06:05:23.606Z,92.70
2019-01-17T06:07:54.160Z,92.80
2019-01-17T06:10:24.378Z,92.80
2019-01-17T06:12:55.291Z,92.90
2019-01-17T06:15:26.363Z,92.90
2019-01-17T06:17:56.932Z,92.90
2019-01-17T06:20:26.914Z,92.90
2019-01-17T06:22:57.133Z,92.70
2019-01-17T06:25:28.174Z,92.80
2019-01-17T06:27:58.851Z,92.90
2019-01-17T06:30:29.555Z,93.00
2019-01-17T06:32:59.362Z,93.00
2019-01-17T06:35:29.839Z,93.00
2019-01-17T06:38:00.110Z,93.00
2019-01-17T06:40:32.884Z,93.00
2019-01-17T06:43:03.532Z,93.10
2019-01-17T06:45:34.016Z,93.00
2019-01-17T06:48:04.837Z,93.00
2019-01-17T06:50:35.349Z,93.00
2019-01-17T06:53:04.940Z,93.00
2019-01-17T06:55:35.405Z,93.00
2019-01-17T06:58:05.804Z,93.00
2019-01-17T07:00:36.026Z,93.00
2019-01-17T07:03:06.590Z,93.00
2019-01-17T07:05:37.181Z,93.10
2019-01-17T07:08:07.678Z,93.10
2019-01-17T07:10:38.092Z,93.20
2019-01-17T07:13:08.342Z,93.20
2019-01-17T07:15:39.024Z,93.30
2019-01-17T07:18:09.226Z,93.40
2019-01-17T07:20:39.481Z,93.30
2019-01-17T07:23:09.278Z,93.30
2019-01-17T07:25:41.143Z,93.20
2019-01-17T07:28:11.890Z,93.30
2019-01-17T07:30:42.404Z,93.40
2019-01-17T07:33:12.776Z,93.40
2019-01-17T07:35:42.890Z,93.50
2019-01-17T07:38:13.288Z,93.40
2019-01-17T07:40:43.817Z,93.50
2019-01-17T07:43:14.380Z,93.60
2019-01-17T07:45:44.512Z,93.50
2019-01-17T07:48:14.957Z,93.50
2019-01-17T07:50:44.925Z,93.40
2019-01-17T07:53:15.491Z,93.40
2019-01-17T07:55:47.703Z,93.40
2019-01-17T07:58:17.999Z,93.40
2019-01-17T08:00:48.678Z,93.40
2019-01-17T08:03:18.850Z,93.50
2019-01-17T08:05:49.346Z,93.50
2019-01-17T08:08:19.538Z,93.60
2019-01-17T08:10:49.856Z,93.60
2019-01-17T08:13:20.364Z,93.70
2019-01-17T08:15:50.808Z,93.80
2019-01-17T08:18:21.278Z,93.80
2019-01-17T08:20:51.312Z,93.90
2019-01-17T08:23:21.872Z,93.80
2019-01-17T08:25:54.365Z,93.80
2019-01-17T08:28:24.478Z,93.90
2019-01-17T08:30:54.714Z,93.90
2019-01-17T08:33:25.333Z,93.80
2019-01-17T08:35:55.542Z,94.10
2019-01-17T08:38:25.418Z,93.70
2019-01-17T08:40:55.660Z,93.50
2019-01-17T08:43:25.989Z,93.50
2019-01-17T08:45:56.272Z,93.60
2019-01-17T08:48:26.983Z,93.50
2019-01-17T08:50:57.197Z,93.50
2019-01-17T08:53:27.398Z,93.30
2019-01-17T08:56:00.897Z,93.40
2019-01-17T08:58:29.595Z,93.40
2019-01-17T09:00:59.760Z,93.50
2019-01-17T09:03:30.355Z,93.40
2019-01-17T09:06:00.832Z,93.20
2019-01-17T09:08:31.452Z,93.40
2019-01-17T09:11:02.031Z,93.40
2019-01-17T09:13:32.200Z,93.20
2019-01-17T09:16:01.982Z,93.10
2019-01-17T09:18:32.545Z,93.10
2019-01-17T09:21:02.984Z,93.00
2019-01-17T09:23:33.120Z,92.80
2019-01-17T09:26:07.499Z,92.70
2019-01-17T09:28:35.446Z,92.90
2019-01-17T09:31:06.066Z,92.20
2019-01-17T09:33:36.612Z,92.10
2019-01-17T09:36:06.917Z,92.10
2019-01-17T09:38:37.555Z,92.10
2019-01-17T09:41:08.051Z,91.60
2019-01-17T09:43:38.150Z,91.30
2019-01-17T09:46:08.701Z,91.00
2019-01-17T09:48:38.830Z,91.00
2019-01-17T09:51:09.336Z,90.80
2019-01-17T09:53:39.652Z,90.40
2019-01-17T09:56:14.799Z,90.00
2019-01-17T09:58:41.943Z,90.10
2019-01-17T10:01:12.166Z,89.50
2019-01-17T10:03:42.358Z,89.10
2019-01-17T10:06:12.761Z,88.30
2019-01-17T10:08:42.998Z,88.90
2019-01-17T10:11:13.524Z,88.70
2019-01-17T10:13:43.802Z,88.60
2019-01-17T10:16:25.906Z,87.60
2019-01-17T10:19:13.724Z,89.10
2019-01-17T10:22:28.462Z,88.70
2019-01-17T10:25:12.708Z,90.10
2019-01-17T10:28:28.481Z,91.10
2019-01-17T10:31:25.433Z,91.40
2019-01-17T10:34:51.180Z,91.10
2019-01-17T10:38:29.788Z,90.80
2019-01-17T10:41:35.209Z,90.80
2019-01-17T10:44:27.441Z,90.40
2019-01-17T10:47:38.291Z,90.70
2019-01-17T10:50:34.190Z,90.10
2019-01-17T10:53:43.918Z,89.30
2019-01-17T10:57:07.355Z,90.20
2019-01-17T11:00:07.683Z,90.10
2019-01-17T11:03:02.357Z,90.70
2019-01-17T11:06:16.406Z,90.00
2019-01-17T11:09:19.450Z,90.30
2019-01-17T11:12:29.996Z,89.70
2019-01-17T11:15:37.036Z,89.60
2019-01-17T11:18:49.952Z,90.20
2019-01-17T11:21:47.296Z,89.60
2019-01-17T11:24:48.628Z,89.80
2019-01-17T11:28:17.194Z,89.90
2019-01-17T11:31:35.881Z,88.10
2019-01-17T11:34:48.195Z,88.50
2019-01-17T11:38:01.105Z,88.90
2019-01-17T11:41:20.235Z,88.30
2019-01-17T11:44:39.987Z,89.20
2019-01-17T11:47:35.088Z,87.90
2019-01-17T11:51:05.376Z,87.70
2019-01-17T11:53:49.420Z,87.70
2019-01-17T11:56:52.492Z,85.10
2019-01-17T12:00:03.542Z,85.50
2019-01-17T12:02:56.995Z,84.50
2019-01-17T12:05:27.584Z,83.30
2019-01-17T12:07:58.210Z,84.10
2019-01-17T12:10:28.604Z,84.30
2019-01-17T12:12:59.794Z,84.20
2019-01-17T12:15:30.375Z,84.40
2019-01-17T12:18:00.970Z,85.10
2019-01-17T12:20:31.532Z,84.90
2019-01-17T12:23:02.098Z,85.40
2019-01-17T12:25:32.262Z,85.10
2019-01-17T12:28:02.460Z,85.40
2019-01-17T12:30:32.036Z,85.60
2019-01-17T12:33:02.179Z,85.90
2019-01-17T12:35:32.400Z,85.90
2019-01-17T12:38:02.882Z,86.00
2019-01-17T12:40:33.586Z,85.40
2019-01-17T12:43:03.873Z,85.40
2019-01-17T12:45:34.110Z,85.10
2019-01-17T12:48:04.124Z,85.40
2019-01-17T12:50:34.759Z,84.00
2019-01-17T12:53:05.378Z,85.00
2019-01-17T12:55:35.962Z,85.60
2019-01-17T12:58:06.243Z,84.60
2019-01-17T13:00:36.462Z,84.30
2019-01-17T13:03:06.799Z,84.80
2019-01-17T13:05:37.034Z,84.90
2019-01-17T13:08:07.587Z,87.80
2019-01-17T13:10:37.878Z,87.40
2019-01-17T13:13:08.358Z,88.70
2019-01-17T13:15:39.467Z,90.30
2019-01-17T13:18:09.984Z,90.80
2019-01-17T13:20:40.540Z,90.70
2019-01-17T13:23:10.704Z,91.10
2019-01-17T13:25:41.392Z,91.10
2019-01-17T13:28:11.301Z,91.20
2019-01-17T13:30:41.527Z,91.40
2019-01-17T13:33:12.276Z,90.90
2019-01-17T13:35:42.418Z,91.30
2019-01-17T13:38:13.029Z,91.30
2019-01-17T13:40:43.672Z,91.40
2019-01-17T13:43:13.899Z,91.30
2019-01-17T13:45:44.383Z,91.30
2019-01-17T13:48:14.732Z,91.30
2019-01-17T13:50:45.228Z,91.70
2019-01-17T13:53:15.502Z,90.70
2019-01-17T13:55:45.708Z,91.00
2019-01-17T13:58:15.532Z,90.80
2019-01-17T14:00:46.170Z,90.60
2019-01-17T14:03:16.734Z,91.00
2019-01-17T14:05:46.600Z,91.00
2019-01-17T14:08:16.934Z,90.90
2019-01-17T14:10:47.418Z,91.00
2019-01-17T14:13:17.849Z,91.20
2019-01-17T14:15:48.130Z,90.50
2019-01-17T14:18:18.671Z,90.70
2019-01-17T14:20:49.140Z,90.40
2019-01-17T14:23:19.007Z,90.50
2019-01-17T14:25:49.340Z,90.50
2019-01-17T14:28:19.822Z,90.50
2019-01-17T14:30:50.189Z,90.40
2019-01-17T14:33:21.148Z,90.40
2019-01-17T14:35:51.811Z,90.20
2019-01-17T14:38:22.397Z,90.00
2019-01-17T14:40:52.994Z,89.60
2019-01-17T14:43:22.989Z,89.60
2019-01-17T14:45:53.280Z,90.50
2019-01-17T14:48:23.770Z,90.10
2019-01-17T14:50:53.730Z,90.10
2019-01-17T14:53:23.918Z,90.10
2019-01-17T14:55:54.191Z,90.10
2019-01-17T14:58:24.394Z,90.10
2019-01-17T15:00:54.988Z,89.70
2019-01-17T15:03:25.603Z,89.70
2019-01-17T15:05:56.238Z,89.90
2019-01-17T15:08:26.857Z,90.30
2019-01-17T15:10:57.541Z,90.30
2019-01-17T15:13:27.917Z,90.60
2019-01-17T15:15:58.067Z,91.40
2019-01-17T15:18:27.932Z,91.70
2019-01-17T15:20:58.510Z,91.60
2019-01-17T15:23:28.974Z,91.90
2019-01-17T15:25:59.230Z,91.90
2019-01-17T15:28:29.770Z,92.00
2019-01-17T15:31:00.254Z,91.60
2019-01-17T15:33:30.523Z,91.20
2019-01-17T15:36:00.774Z,90.40
2019-01-17T15:38:31.400Z,90.30
2019-01-17T15:41:01.976Z,89.80
2019-01-17T15:43:32.638Z,89.10
2019-01-17T15:46:03.268Z,88.10
2019-01-17T15:48:33.102Z,87.80
2019-01-17T15:51:03.776Z,86.90
2019-01-17T15:53:34.398Z,86.50
2019-01-17T15:56:04.679Z,87.30
2019-01-17T15:58:35.331Z,87.90
2019-01-17T16:01:05.930Z,88.40
2019-01-17T16:03:36.463Z,87.70
2019-01-17T16:06:06.829Z,87.70
2019-01-17T16:08:37.122Z,87.30
2019-01-17T16:11:07.308Z,87.50
2019-01-17T16:13:37.903Z,87.20
2019-01-17T16:16:07.741Z,87.90
2019-01-17T16:18:38.310Z,86.00
2019-01-17T16:21:08.890Z,86.00
2019-01-17T16:23:39.112Z,86.20
2019-01-17T16:26:09.311Z,84.40
2019-01-17T16:28:39.987Z,85.10
2019-01-17T16:31:10.155Z,84.80
2019-01-17T16:33:40.378Z,84.40
2019-01-17T16:36:11.066Z,83.80
2019-01-17T16:38:41.242Z,83.10
2019-01-17T16:41:11.870Z,83.40
2019-01-17T16:43:42.172Z,83.50
2019-01-17T16:46:12.471Z,83.10
2019-01-17T16:48:42.942Z,82.40
2019-01-17T16:51:13.433Z,83.10
2019-01-17T16:53:43.959Z,82.40
2019-01-17T16:56:14.151Z,82.50
2019-01-17T16:58:44.714Z,82.40
2019-01-17T17:01:15.270Z,82.60
2019-01-17T17:03:45.467Z,82.60
2019-01-17T17:06:15.915Z,82.80
2019-01-17T17:08:46.085Z,83.10
2019-01-17T17:11:16.294Z,83.50
2019-01-17T17:13:46.995Z,83.10
2019-01-17T17:16:17.248Z,83.00
2019-01-17T17:18:47.788Z,83.70
2019-01-17T17:21:18.088Z,83.70
2019-01-17T17:23:48.446Z,84.30
2019-01-17T17:26:18.691Z,84.90
2019-01-17T17:28:49.273Z,86.20
2019-01-17T17:31:19.451Z,86.10
2019-01-17T17:33:49.418Z,86.00
2019-01-17T17:36:20.042Z,84.10
2019-01-17T17:38:50.691Z,82.00
2019-01-17T17:41:20.980Z,81.90
2019-01-17T17:44:10.254Z,81.00
2019-01-17T17:46:40.965Z,81.00
